Time;durP1;ratioP1;P1;durP2;ratioP2;P2;SDS_P1;SDS_P2;PMS_P1;PMS_P2;Temp;Humidity;BMP_temperature;BMP_pressure;BME280_temperature;BME280_humidity;BME280_pressure;Samples;Min_cycle;Max_cycle;Signal;HPM_P1;HPM_P2
2022/08/31 00:06:11;;;;;;;4.53;2.50;;;;;;;-144.48;100.00;62369.91;4997255;28;20057;-67
2022/08/31 00:08:36;;;;;;;6.28;2.90;;;;;;;-144.48;100.00;62369.91;5007680;28;20030;-67
2022/08/31 00:11:02;;;;;;;9.25;2.53;;;;;;;-144.48;100.00;62369.91;5009619;28;20103;-67
2022/08/31 00:13:28;;;;;;;4.65;2.40;;;;;;;-144.48;100.00;62369.91;5009392;28;20111;-65
2022/08/31 00:15:54;;;;;;;7.38;2.35;;;;;;;-144.48;100.00;62369.91;5009459;28;20033;-68
2022/08/31 00:18:21;;;;;;;7.05;2.30;;;;;;;-144.48;100.00;62369.91;5011421;28;20026;-67
2022/08/31 00:20:47;;;;;;;5.63;2.08;;;;;;;-144.48;100.00;62369.91;5013076;28;20026;-67
2022/08/31 00:23:15;;;;;;;9.43;2.78;;;;;;;-144.48;100.00;62369.91;5013463;28;20030;-67
2022/08/31 00:25:43;;;;;;;4.55;2.35;;;;;;;-144.48;100.00;62369.91;5013241;28;20480;-67
2022/08/31 00:28:10;;;;;;;5.57;2.60;;;;;;;-144.48;100.00;62369.91;5012706;28;20038;-66
2022/08/31 00:30:35;;;;;;;6.93;2.15;;;;;;;-144.48;100.00;62369.91;5013120;28;20076;-67
2022/08/31 00:33:02;;;;;;;3.92;1.98;;;;;;;-144.48;100.00;62369.91;5009605;28;20045;-68
2022/08/31 00:35:30;;;;;;;3.55;2.10;;;;;;;-144.48;100.00;62369.91;5003220;28;20068;-67
2022/08/31 00:37:56;;;;;;;6.53;2.30;;;;;;;-144.48;100.00;62369.91;4999282;28;20587;-67
2022/08/31 00:40:21;;;;;;;4.43;1.88;;;;;;;-144.48;100.00;62369.91;5011615;28;20281;-68
2022/08/31 00:42:47;;;;;;;3.92;1.80;;;;;;;-144.48;100.00;62369.91;5011103;28;20030;-67
2022/08/31 00:45:12;;;;;;;5.32;1.92;;;;;;;-144.48;100.00;62369.91;5011429;28;20537;-71
2022/08/31 00:47:38;;;;;;;4.95;2.17;;;;;;;-144.48;100.00;62369.91;5010513;28;20034;-66
2022/08/31 00:50:07;;;;;;;4.97;1.92;;;;;;;-144.48;100.00;62369.91;5005782;28;20030;-67
2022/08/31 00:52:36;;;;;;;5.57;2.42;;;;;;;-144.48;100.00;62369.91;5012246;28;20038;-68
2022/08/31 00:55:06;;;;;;;;;;;;;;;-144.48;100.00;62369.91;5012209;28;20033;-67
2022/08/31 00:57:35;;;;;;;4.47;2.30;;;;;;;-144.48;100.00;62369.91;5006057;28;20352;-66
2022/08/31 01:00:07;;;;;;;6.95;2.05;;;;;;;-144.48;100.00;62369.91;5003923;28;20030;-69
2022/08/31 01:02:32;;;;;;;5.65;2.17;;;;;;;-144.48;100.00;62369.91;5011628;28;20018;-65
2022/08/31 01:04:58;;;;;;;7.57;2.05;;;;;;;-144.48;100.00;62369.91;5011023;28;20360;-68
2022/08/31 01:07:24;;;;;;;4.47;1.88;;;;;;;-144.48;100.00;62369.91;5010429;28;20512;-67
2022/08/31 01:09:49;;;;;;;5.05;2.13;;;;;;;-144.48;100.00;62369.91;5012159;28;20060;-68
2022/08/31 01:12:15;;;;;;;7.03;2.50;;;;;;;-144.48;100.00;62369.91;5012092;28;20057;-69
2022/08/31 01:14:41;;;;;;;13.70;2.70;;;;;;;-144.48;100.00;62369.91;5011859;28;20300;-67
2022/08/31 01:17:07;;;;;;;3.70;2.08;;;;;;;-144.48;100.00;62369.91;5011494;28;20470;-69
2022/08/31 01:19:41;;;;;;;4.82;2.40;;;;;;;-144.48;100.00;62369.91;5012507;28;20018;-69
2022/08/31 01:22:46;;;;;;;7.22;2.95;;;;;;;-144.48;100.00;62369.91;5011673;28;20100;-67
2022/08/31 01:25:13;;;;;;;7.60;2.05;;;;;;;-144.48;100.00;62369.91;5010563;28;20024;-67
2022/08/31 01:27:39;;;;;;;5.32;2.30;;;;;;;-144.48;100.00;62369.91;5010028;28;20480;-67
2022/08/31 01:30:09;;;;;;;4.65;2.20;;;;;;;-144.48;100.00;62369.91;5010872;28;20499;-67
2022/08/31 01:32:34;;;;;;;4.90;2.40;;;;;;;-144.48;100.00;62369.91;5010177;28;20220;-67
2022/08/31 01:35:00;;;;;;;10.13;3.30;;;;;;;-144.48;100.00;62369.91;4999187;28;20109;-68
2022/08/31 01:37:26;;;;;;;9.40;2.28;;;;;;;-144.48;100.00;62369.91;5011659;28;20026;-68
2022/08/31 01:39:51;;;;;;;5.70;2.20;;;;;;;-144.48;100.00;62369.91;5010926;28;20056;-68
2022/08/31 01:42:17;;;;;;;6.18;2.45;;;;;;;-144.48;100.00;62369.91;5010501;28;20382;-70
2022/08/31 01:44:43;;;;;;;4.38;2.20;;;;;;;-144.48;100.00;62369.91;5010384;28;20654;-68
2022/08/31 01:47:08;;;;;;;5.72;2.38;;;;;;;-144.48;100.00;62369.91;5010861;28;20116;-65
2022/08/31 01:49:34;;;;;;;6.35;2.10;;;;;;;-144.48;100.00;62369.91;5004066;28;20025;-69
2022/08/31 01:51:59;;;;;;;6.47;2.00;;;;;;;-144.48;100.00;62369.91;5008666;28;20026;-70
2022/08/31 01:54:26;;;;;;;5.55;2.10;;;;;;;-144.48;100.00;62369.91;5010574;28;20114;-69
2022/08/31 01:56:52;;;;;;;6.07;2.15;;;;;;;-144.48;100.00;62369.91;5010040;28;20014;-69
2022/08/31 01:59:19;;;;;;;3.58;1.88;;;;;;;-144.48;100.00;62369.91;5008228;28;20022;-66
2022/08/31 02:01:49;;;;;;;10.82;2.75;;;;;;;-144.48;100.00;62369.91;5009600;28;20037;-69
2022/08/31 02:04:15;;;;;;;5.10;2.08;;;;;;;-144.48;100.00;62369.91;5003743;28;20463;-68
2022/08/31 02:06:43;;;;;;;5.28;2.28;;;;;;;-144.48;100.00;62369.91;5009782;28;20040;-67
2022/08/31 02:09:10;;;;;;;3.70;1.85;;;;;;;-144.48;100.00;62369.91;5009706;28;20435;-66
2022/08/31 02:11:35;;;;;;;5.60;2.10;;;;;;;-144.48;100.00;62369.91;5009432;28;20037;-67
2022/08/31 02:14:01;;;;;;;8.38;2.00;;;;;;;-144.48;100.00;62369.91;4996940;28;20025;-67
2022/08/31 02:16:26;;;;;;;4.18;2.05;;;;;;;-144.48;100.00;62369.91;5008751;28;20017;-66
2022/08/31 02:18:52;;;;;;;5.43;2.03;;;;;;;-144.48;100.00;62369.91;5010245;28;20493;-68
2022/08/31 02:21:18;;;;;;;6.78;2.28;;;;;;;-144.48;100.00;62369.91;5009439;28;20076;-67
2022/08/31 02:23:43;;;;;;;5.15;2.33;;;;;;;-144.48;100.00;62369.91;5009266;28;20030;-67
2022/08/31 02:26:09;;;;;;;9.85;2.50;;;;;;;-144.48;100.00;62369.91;5009494;28;20472;-67
2022/08/31 02:28:35;;;;;;;4.32;1.88;;;;;;;-144.48;100.00;62369.91;5010492;28;20072;-67
2022/08/31 02:31:00;;;;;;;3.47;1.63;;;;;;;-144.48;100.00;62369.91;5009897;28;20113;-67
2022/08/31 02:33:26;;;;;;;5.13;2.35;;;;;;;-144.48;100.00;62369.91;5009818;28;20479;-67
2022/08/31 02:35:52;;;;;;;5.05;1.75;;;;;;;-144.48;100.00;62369.91;5009654;28;20541;-70
2022/08/31 02:38:17;;;;;;;9.05;2.40;;;;;;;-144.48;100.00;62369.91;5012945;28;20061;-68
2022/08/31 02:40:43;;;;;;;5.95;2.22;;;;;;;-144.48;100.00;62369.91;5010162;28;20025;-69
2022/08/31 02:43:10;;;;;;;4.70;2.35;;;;;;;-144.48;100.00;62369.91;5009846;28;20033;-71
2022/08/31 02:45:36;;;;;;;5.57;2.20;;;;;;;-144.48;100.00;62369.91;5009694;28;20503;-67
2022/08/31 02:48:03;;;;;;;5.05;2.03;;;;;;;-144.48;100.00;62369.91;5009043;28;20033;-68
2022/08/31 02:50:29;;;;;;;4.82;1.80;;;;;;;-144.48;100.00;62369.91;5002798;28;20022;-67
2022/08/31 02:52:55;;;;;;;7.95;2.17;;;;;;;-144.48;100.00;62369.91;5008927;28;20487;-68
2022/08/31 02:55:25;;;;;;;5.43;2.22;;;;;;;-144.48;100.00;62369.91;5008794;28;20034;-67
2022/08/31 02:57:52;;;;;;;6.22;2.40;;;;;;;-144.48;100.00;62369.91;5001583;28;20026;-67
2022/08/31 03:00:20;;;;;;;5.10;2.50;;;;;;;-144.48;100.00;62369.91;5004767;28;20041;-66
2022/08/31 03:02:46;;;;;;;4.80;2.40;;;;;;;-144.48;100.00;62369.91;5010659;28;20037;-67
2022/08/31 03:05:11;;;;;;;4.22;2.50;;;;;;;-144.48;100.00;62369.91;5009224;28;20335;-68
2022/08/31 03:07:37;;;;;;;5.75;2.42;;;;;;;-144.48;100.00;62369.91;5007455;28;20183;-68
2022/08/31 03:10:05;;;;;;;8.95;2.55;;;;;;;-144.48;100.00;62369.91;4988866;28;20435;-68
2022/08/31 03:12:30;;;;;;;5.10;2.17;;;;;;;-144.48;100.00;62369.91;5008844;28;20421;-68
2022/08/31 03:14:55;;;;;;;7.93;2.45;;;;;;;-144.48;100.00;62369.91;5009539;28;20156;-68
2022/08/31 03:17:21;;;;;;;7.80;2.85;;;;;;;-144.48;100.00;62369.91;5008262;28;20017;-67
2022/08/31 03:19:46;;;;;;;4.43;2.38;;;;;;;-144.48;100.00;62369.91;5008388;28;20533;-64
2022/08/31 03:22:13;;;;;;;4.55;2.55;;;;;;;-144.48;100.00;62369.91;5008151;28;20037;-68
2022/08/31 03:24:39;;;;;;;8.05;2.53;;;;;;;-144.48;100.00;62369.91;5009386;28;20079;-65
2022/08/31 03:27:04;;;;;;;7.35;2.80;;;;;;;-144.48;100.00;62369.91;4999751;28;20038;-68
2022/08/31 03:29:29;;;;;;;5.35;2.38;;;;;;;-144.48;100.00;62369.91;5008564;28;20030;-68
2022/08/31 03:31:55;;;;;;;6.78;2.40;;;;;;;-144.48;100.00;62369.91;5008208;28;20057;-67
2022/08/31 03:34:20;;;;;;;6.30;2.40;;;;;;;-144.48;100.00;62369.91;5008877;28;20495;-66
2022/08/31 03:36:45;;;;;;;6.05;2.35;;;;;;;-144.48;100.00;62369.91;5009455;28;20137;-63
2022/08/31 03:39:11;;;;;;;5.85;2.40;;;;;;;-144.48;100.00;62369.91;5009883;28;20025;-66
2022/08/31 03:41:36;;;;;;;8.15;3.00;;;;;;;-144.48;100.00;62369.91;5008356;28;20032;-68
2022/08/31 03:44:04;;;;;;;8.60;2.70;;;;;;;-144.48;100.00;62369.91;5008786;28;20330;-69
2022/08/31 03:46:31;;;;;;;5.15;2.63;;;;;;;-144.48;100.00;62369.91;5008562;28;20049;-68
2022/08/31 03:48:57;;;;;;;7.13;2.72;;;;;;;-144.48;100.00;62369.91;5001160;28;20628;-67
2022/08/31 03:51:23;;;;;;;5.43;2.35;;;;;;;-144.48;100.00;62369.91;5007762;28;20022;-68
2022/08/31 03:53:48;;;;;;;6.57;2.67;;;;;;;-144.48;100.00;62369.91;5010847;28;20034;-69
2022/08/31 03:56:13;;;;;;;6.57;2.30;;;;;;;-144.48;100.00;62369.91;5011344;28;20018;-67
2022/08/31 03:58:39;;;;;;;9.65;2.70;;;;;;;-144.48;100.00;62369.91;5012364;28;20272;-68
2022/08/31 04:01:05;;;;;;;7.07;2.42;;;;;;;-144.48;100.00;62369.91;5012874;28;20021;-68
2022/08/31 04:03:30;;;;;;;6.03;2.80;;;;;;;-144.48;100.00;62369.91;5004987;28;20080;-67
2022/08/31 04:05:56;;;;;;;7.55;2.30;;;;;;;-144.48;100.00;62369.91;5011897;28;20252;-67
2022/08/31 04:08:21;;;;;;;4.15;2.22;;;;;;;-144.48;100.00;62369.91;5011100;28;20030;-67
2022/08/31 04:10:50;;;;;;;8.80;2.67;;;;;;;-144.48;100.00;62369.91;5012123;28;20034;-67
2022/08/31 04:13:15;;;;;;;4.53;2.10;;;;;;;-144.48;100.00;62369.91;5012153;28;20040;-70
2022/08/31 04:15:41;;;;;;;14.63;2.70;;;;;;;-144.48;100.00;62369.91;5012490;28;20037;-66
2022/08/31 04:18:06;;;;;;;5.60;2.65;;;;;;;-144.48;100.00;62369.91;5012394;28;20018;-68
2022/08/31 04:20:36;;;;;;;7.50;2.50;;;;;;;-144.48;100.00;62369.91;5008402;28;20210;-67
2022/08/31 04:23:03;;;;;;;5.60;2.58;;;;;;;-144.48;100.00;62369.91;5000349;28;20029;-70
2022/08/31 04:25:28;;;;;;;4.30;2.65;;;;;;;-144.48;100.00;62369.91;4993510;28;20030;-69
2022/08/31 04:27:55;;;;;;;8.10;2.67;;;;;;;-144.48;100.00;62369.91;4997868;28;20030;-68
2022/08/31 04:30:25;;;;;;;13.93;2.70;;;;;;;-144.48;100.00;62369.91;4994238;28;20028;-72
2022/08/31 04:32:52;;;;;;;5.45;2.53;;;;;;;-144.48;100.00;62369.91;4996247;28;20423;-67
2022/08/31 04:35:17;;;;;;;8.15;2.90;;;;;;;-144.48;100.00;62369.91;4995766;28;20171;-67
2022/08/31 04:37:43;;;;;;;10.50;3.30;;;;;;;-144.48;100.00;62369.91;4992731;28;20461;-69
2022/08/31 04:40:18;;;;;;;5.40;2.42;;;;;;;-144.48;100.00;62369.91;4996865;28;20034;-65
2022/08/31 04:42:46;;;;;;;12.25;2.60;;;;;;;-144.48;100.00;62369.91;5001780;28;20017;-69
2022/08/31 04:45:12;;;;;;;5.85;2.72;;;;;;;-144.48;100.00;62369.91;5010905;28;20104;-67
2022/08/31 04:47:40;;;;;;;9.75;3.08;;;;;;;-144.48;100.00;62369.91;5012736;28;20440;-68
2022/08/31 04:50:06;;;;;;;5.93;2.78;;;;;;;-144.48;100.00;62369.91;5010711;28;20030;-68
2022/08/31 04:52:32;;;;;;;6.60;2.53;;;;;;;-144.48;100.00;62369.91;5013153;28;20061;-72
2022/08/31 04:54:57;;;;;;;5.97;2.72;;;;;;;-144.48;100.00;62369.91;5013620;28;20030;-69
2022/08/31 04:57:23;;;;;;;5.40;3.05;;;;;;;-144.48;100.00;62369.91;5013309;28;20405;-68
2022/08/31 04:59:48;;;;;;;7.13;3.13;;;;;;;-144.48;100.00;62369.91;5013182;28;20503;-68
2022/08/31 05:02:13;;;;;;;11.10;2.70;;;;;;;-144.48;100.00;62369.91;5009093;28;20021;-71
2022/08/31 05:04:39;;;;;;;9.30;2.83;;;;;;;-144.48;100.00;62369.91;5012141;28;20619;-69
2022/08/31 05:07:04;;;;;;;15.30;3.20;;;;;;;-144.48;100.00;62369.91;5012963;28;20100;-70
2022/08/31 05:09:29;;;;;;;5.45;2.65;;;;;;;-144.48;100.00;62369.91;5011539;28;20480;-67
2022/08/31 05:11:55;;;;;;;9.57;2.65;;;;;;;-144.48;100.00;62369.91;5012514;28;20081;-70
2022/08/31 05:14:22;;;;;;;6.10;2.60;;;;;;;-144.48;100.00;62369.91;5011934;28;20044;-69
2022/08/31 05:16:48;;;;;;;4.97;2.80;;;;;;;-144.48;100.00;62369.91;5008219;28;20100;-68
2022/08/31 05:19:14;;;;;;;5.72;2.40;;;;;;;-144.48;100.00;62369.91;4994089;28;20019;-69
2022/08/31 05:21:41;;;;;;;5.90;2.53;;;;;;;-144.48;100.00;62369.91;4997960;28;20032;-67
2022/08/31 05:24:13;;;;;;;5.93;2.80;;;;;;;-144.48;100.00;62369.91;5003395;28;20038;-67
2022/08/31 05:26:46;;;;;;;7.28;2.35;;;;;;;-144.48;100.00;62369.91;5000508;28;20030;-71
2022/08/31 05:29:13;;;;;;;5.45;2.50;;;;;;;-144.48;100.00;62369.91;5009888;28;20030;-69
2022/08/31 05:31:38;;;;;;;6.57;3.00;;;;;;;-144.48;100.00;62369.91;5011006;28;20037;-69
2022/08/31 05:34:04;;;;;;;6.32;2.60;;;;;;;-144.48;100.00;62369.91;5011892;28;20088;-71
2022/08/31 05:36:30;;;;;;;7.72;3.50;;;;;;;-144.48;100.00;62369.91;5011056;28;20052;-72
2022/08/31 05:38:57;;;;;;;5.28;2.40;;;;;;;-144.48;100.00;62369.91;5010854;28;20030;-70
2022/08/31 05:41:22;;;;;;;22.65;2.85;;;;;;;-144.48;100.00;62369.91;5010545;28;20022;-69
2022/08/31 05:43:48;;;;;;;11.15;2.65;;;;;;;-144.48;100.00;62369.91;5028892;22;20046;-72
2022/08/31 05:46:15;;;;;;;7.15;2.95;;;;;;;-144.48;100.00;62369.91;5030995;28;20028;-72
2022/08/31 05:48:41;;;;;;;7.40;2.75;;;;;;;-144.48;100.00;62369.91;5029955;28;20033;-71
2022/08/31 05:51:09;;;;;;;8.32;2.63;;;;;;;-144.48;100.00;62369.91;5029850;28;20026;-72
2022/08/31 05:53:36;;;;;;;7.22;2.70;;;;;;;-144.48;100.00;62369.91;5026090;28;20036;-72
2022/08/31 05:56:05;;;;;;;8.38;2.30;;;;;;;-144.48;100.00;62369.91;5010618;28;20022;-74
2022/08/31 05:58:32;;;;;;;10.38;3.90;;;;;;;-144.48;100.00;62369.91;5009747;28;20032;-70
2022/08/31 06:00:58;;;;;;;5.93;3.20;;;;;;;-144.48;100.00;62369.91;5010167;28;20026;-72
2022/08/31 06:03:24;;;;;;;4.65;2.15;;;;;;;-144.48;100.00;62369.91;5009362;28;20033;-71
2022/08/31 06:05:50;;;;;;;6.55;2.65;;;;;;;-144.48;100.00;62369.91;5008450;28;20364;-72
2022/08/31 06:08:16;;;;;;;6.22;3.33;;;;;;;-144.48;100.00;62369.91;5009797;28;20049;-71
2022/08/31 06:10:42;;;;;;;4.53;2.08;;;;;;;-144.48;100.00;62369.91;5010771;28;20053;-72
2022/08/31 06:13:09;;;;;;;9.13;2.60;;;;;;;-144.48;100.00;62369.91;5010603;28;20021;-71
2022/08/31 06:15:35;;;;;;;12.55;3.20;;;;;;;-144.48;100.00;62369.91;5011120;28;20022;-71
2022/08/31 06:18:00;;;;;;;8.65;2.60;;;;;;;-144.48;100.00;62369.91;5009274;28;20495;-71
2022/08/31 06:20:26;;;;;;;14.50;3.17;;;;;;;-144.48;100.00;62369.91;5010544;28;20438;-72
2022/08/31 06:22:51;;;;;;;12.88;2.70;;;;;;;-144.48;100.00;62369.91;5010799;28;20026;-71
2022/08/31 06:25:18;;;;;;;11.18;2.80;;;;;;;-144.48;100.00;62369.91;5010725;28;20026;-72
2022/08/31 06:27:49;;;;;;;11.40;3.03;;;;;;;-144.48;100.00;62369.91;5011190;28;20116;-73
2022/08/31 06:30:18;;;;;;;12.30;3.47;;;;;;;-144.48;100.00;62369.91;5009213;28;20399;-72
2022/08/31 06:32:46;;;;;;;11.40;2.50;;;;;;;-144.48;100.00;62369.91;5010050;28;20476;-72
2022/08/31 06:35:13;;;;;;;6.20;3.30;;;;;;;-144.48;100.00;62369.91;5010264;28;20041;-71
2022/08/31 06:37:38;;;;;;;10.50;2.50;;;;;;;-144.48;100.00;62369.91;4998701;28;20041;-72
2022/08/31 06:40:04;;;;;;;5.80;2.22;;;;;;;-144.48;100.00;62369.91;5009727;28;20030;-72
2022/08/31 06:42:29;;;;;;;7.93;3.28;;;;;;;-144.48;100.00;62369.91;5009130;28;20044;-73
2022/08/31 06:44:55;;;;;;;7.95;2.17;;;;;;;-144.48;100.00;62369.91;5009829;28;20056;-73
2022/08/31 06:47:20;;;;;;;8.65;2.35;;;;;;;-144.48;100.00;62369.91;5009566;28;20112;-73
2022/08/31 06:49:46;;;;;;;13.18;2.90;;;;;;;-144.48;100.00;62369.91;5010163;28;20105;-71
2022/08/31 06:52:13;;;;;;;6.35;2.60;;;;;;;-144.48;100.00;62369.91;5010771;28;20068;-72
2022/08/31 06:54:39;;;;;;;10.75;2.53;;;;;;;-144.48;100.00;62369.91;5010395;28;20101;-72
2022/08/31 06:57:04;;;;;;;5.85;2.28;;;;;;;-144.48;100.00;62369.91;5010760;28;20168;-72
2022/08/31 06:59:30;;;;;;;7.55;2.70;;;;;;;-144.48;100.00;62369.91;5010000;28;20025;-73
2022/08/31 07:01:57;;;;;;;7.97;2.33;;;;;;;-144.48;100.00;62369.91;5010873;28;20069;-71
2022/08/31 07:04:22;;;;;;;6.72;2.78;;;;;;;-144.48;100.00;62369.91;5009805;28;20053;-72
2022/08/31 07:06:48;;;;;;;9.35;2.20;;;;;;;-144.48;100.00;62369.91;5009005;28;20057;-73
2022/08/31 07:09:16;;;;;;;8.60;2.30;;;;;;;-144.48;100.00;62369.91;5009907;28;20049;-71
2022/08/31 07:11:45;;;;;;;10.57;2.30;;;;;;;-144.48;100.00;62369.91;5010436;28;20115;-71
2022/08/31 07:14:14;;;;;;;7.53;2.30;;;;;;;-144.48;100.00;62369.91;5008570;28;20092;-71
2022/08/31 07:16:40;;;;;;;;;;;;;;;-144.48;100.00;62369.91;5010523;28;20040;-70
2022/08/31 07:19:06;;;;;;;7.78;2.60;;;;;;;-144.48;100.00;62369.91;5016804;28;19948;-73
2022/08/31 07:21:39;;;;;;;8.77;2.10;;;;;;;-144.48;100.00;62369.91;5012882;28;20018;-72
2022/08/31 07:24:06;;;;;;;3.90;2.00;;;;;;;-144.48;100.00;62369.91;5010533;28;20057;-72
2022/08/31 07:26:41;;;;;;;8.68;2.40;;;;;;;-144.48;100.00;62369.91;5008296;28;20108;-71
2022/08/31 07:29:08;;;;;;;8.65;2.63;;;;;;;-144.48;100.00;62369.91;5009972;28;20037;-72
2022/08/31 07:31:47;;;;;;;9.23;2.63;;;;;;;-144.48;100.00;62369.91;5010012;28;20022;-71
2022/08/31 07:34:17;;;;;;;;;;;;;;;-144.48;100.00;62369.91;5010213;28;20216;-71
2022/08/31 07:42:19;;;;;;;8.43;2.45;;;;;;;-144.48;100.00;62369.91;5010082;28;20287;-71
2022/08/31 07:44:50;;;;;;;14.10;2.28;;;;;;;-144.48;100.00;62369.91;5009871;28;20036;-71
2022/08/31 07:47:18;;;;;;;11.20;2.50;;;;;;;-144.48;100.00;62369.91;5009916;28;20026;-72
2022/08/31 07:49:47;;;;;;;7.68;2.20;;;;;;;-144.48;100.00;62369.91;5009903;28;20022;-71
2022/08/31 07:52:20;;;;;;;;;;;;;;;-144.48;100.00;62369.91;5010269;28;20038;-72
2022/08/31 07:54:45;;;;;;;4.53;1.98;;;;;;;-144.48;100.00;62369.91;5010433;28;19914;-73
2022/08/31 07:57:12;;;;;;;10.45;2.22;;;;;;;-144.48;100.00;62369.91;5009839;28;20030;-73
2022/08/31 07:59:38;;;;;;;8.55;2.00;;;;;;;-144.48;100.00;62369.91;5011199;28;20599;-72
2022/08/31 08:02:04;;;;;;;5.95;2.05;;;;;;;-144.48;100.00;62369.91;5010883;28;20076;-71
2022/08/31 08:04:39;;;;;;;7.13;2.20;;;;;;;-144.48;100.00;62369.91;5011021;28;20021;-79
2022/08/31 08:07:05;;;;;;;6.15;2.47;;;;;;;-144.48;100.00;62369.91;5011093;28;20022;-70
2022/08/31 08:09:32;;;;;;;7.00;2.95;;;;;;;-144.48;100.00;62369.91;5011282;28;20026;-71
2022/08/31 08:12:03;;;;;;;6.97;2.53;;;;;;;-144.48;100.00;62369.91;5010756;28;20049;-73
2022/08/31 08:14:29;;;;;;;7.63;1.98;;;;;;;-144.48;100.00;62369.91;5009939;28;20022;-71
2022/08/31 08:16:55;;;;;;;11.68;3.28;;;;;;;-144.48;100.00;62369.91;5008712;28;20041;-71
2022/08/31 08:19:21;;;;;;;6.82;2.22;;;;;;;-144.48;100.00;62369.91;5008782;28;20026;-72
2022/08/31 08:21:47;;;;;;;7.38;2.15;;;;;;;-144.48;100.00;62369.91;5003711;28;20018;-71
2022/08/31 08:24:14;;;;;;;9.85;3.53;;;;;;;-144.48;100.00;62369.91;5001822;28;20104;-72
2022/08/31 08:26:48;;;;;;;7.38;2.53;;;;;;;-144.48;100.00;62369.91;5008570;28;20030;-70
2022/08/31 08:29:14;;;;;;;7.63;2.47;;;;;;;-144.48;100.00;62369.91;5009115;28;20085;-71
2022/08/31 08:31:41;;;;;;;5.63;2.45;;;;;;;-144.48;100.00;62369.91;5009039;28;20022;-72
2022/08/31 08:34:07;;;;;;;6.18;2.42;;;;;;;-144.48;100.00;62369.91;5008636;28;20156;-70
2022/08/31 08:36:34;;;;;;;5.18;2.00;;;;;;;-144.48;100.00;62369.91;5003621;28;20118;-71
2022/08/31 08:39:02;;;;;;;10.15;2.22;;;;;;;-144.48;100.00;62369.91;5004631;28;20493;-72
2022/08/31 08:41:30;;;;;;;5.35;2.08;;;;;;;-144.48;100.00;62369.91;5012784;28;20040;-71
2022/08/31 08:44:03;;;;;;;10.38;2.20;;;;;;;-144.48;100.00;62369.91;5011272;28;20034;-73
2022/08/31 08:46:42;;;;;;;9.68;2.47;;;;;;;-144.48;100.00;62369.91;5011802;28;20483;-72
2022/08/31 08:49:14;;;;;;;4.70;2.05;;;;;;;-144.48;100.00;62369.91;5011007;28;20058;-72
2022/08/31 08:51:40;;;;;;;12.82;2.72;;;;;;;-144.48;100.00;62369.91;5011892;28;20105;-73
2022/08/31 08:54:12;;;;;;;6.88;2.25;;;;;;;-144.48;100.00;62369.91;5011048;28;20109;-71
2022/08/31 08:56:45;;;;;;;8.70;2.15;;;;;;;-144.48;100.00;62369.91;5013330;28;20029;-72
2022/08/31 08:59:11;;;;;;;6.18;2.10;;;;;;;-144.48;100.00;62369.91;4999399;28;20048;-70
2022/08/31 09:01:38;;;;;;;14.48;2.90;;;;;;;-144.48;100.00;62369.91;5011284;28;20033;-71
2022/08/31 09:04:04;;;;;;;7.57;2.00;;;;;;;-144.48;100.00;62369.91;5010174;28;20108;-75
2022/08/31 09:06:39;;;;;;;5.53;1.90;;;;;;;-144.48;100.00;62369.91;5015504;28;20183;-73
2022/08/31 09:09:17;;;;;;;7.55;2.17;;;;;;;-144.48;100.00;62369.91;5012454;28;20033;-73
2022/08/31 09:12:03;;;;;;;7.95;2.20;;;;;;;-144.48;100.00;62369.91;5011077;28;20038;-72
2022/08/31 09:14:35;;;;;;;5.18;1.90;;;;;;;-144.48;100.00;62369.91;5013352;28;20618;-70
2022/08/31 09:17:27;;;;;;;4.65;1.73;;;;;;;-144.48;100.00;62369.91;5011322;28;20104;-72
2022/08/31 09:20:00;;;;;;;5.60;1.73;;;;;;;-144.48;100.00;62369.91;5011913;28;20029;-71
2022/08/31 09:22:45;;;;;;;6.80;2.13;;;;;;;-144.48;100.00;62369.91;4999398;28;20031;-72
2022/08/31 09:25:13;;;;;;;12.85;2.10;;;;;;;-144.48;100.00;62369.91;4999503;28;20061;-71
2022/08/31 09:27:46;;;;;;;6.47;2.00;;;;;;;-144.48;100.00;62369.91;5004278;28;20026;-72
2022/08/31 09:30:16;;;;;;;10.75;3.72;;;;;;;-144.48;100.00;62369.91;5011904;28;20399;-71
2022/08/31 09:32:53;;;;;;;5.53;1.70;;;;;;;-144.48;100.00;62369.91;5011577;28;20109;-73
2022/08/31 09:35:27;;;;;;;12.40;2.15;;;;;;;-144.48;100.00;62369.91;5011912;28;20507;-72
2022/08/31 09:38:06;;;;;;;5.03;1.38;;;;;;;-144.48;100.00;62369.91;5011354;28;20344;-72
2022/08/31 09:40:41;;;;;;;6.88;1.40;;;;;;;-144.48;100.00;62369.91;5011813;28;20362;-72
2022/08/31 09:43:11;;;;;;;6.47;1.48;;;;;;;-144.48;100.00;62369.91;4999868;28;20041;-72
2022/08/31 09:45:56;;;;;;;9.02;1.75;;;;;;;-144.48;100.00;62369.91;5011950;28;20041;-76
2022/08/31 09:48:51;;;;;;;4.43;1.40;;;;;;;-144.48;100.00;62369.91;5011468;28;20026;-73
2022/08/31 09:51:22;;;;;;;3.88;1.55;;;;;;;-144.48;100.00;62369.91;5010712;28;20072;-73
2022/08/31 09:56:51;;;;;;;7.68;1.42;;;;;;;-144.48;100.00;62369.91;5010270;28;20025;-72
2022/08/31 09:59:36;;;;;;;6.10;1.80;;;;;;;-144.48;100.00;62369.91;4998053;28;20052;-71
2022/08/31 10:02:06;;;;;;;5.63;1.45;;;;;;;-144.48;100.00;62369.91;5011177;28;20113;-73
2022/08/31 10:04:36;;;;;;;5.93;1.60;;;;;;;-144.48;100.00;62369.91;5003848;28;20052;-74
2022/08/31 10:07:12;;;;;;;6.25;1.60;;;;;;;-144.48;100.00;62369.91;5009750;28;20030;-73
2022/08/31 10:09:54;;;;;;;9.38;1.63;;;;;;;-144.48;100.00;62369.91;5011103;28;20451;-72
2022/08/31 10:12:47;;;;;;;11.43;1.70;;;;;;;-144.48;100.00;62369.91;5011083;28;20041;-73
2022/08/31 10:15:22;;;;;;;7.10;1.70;;;;;;;-144.48;100.00;62369.91;5010559;28;20104;-72
2022/08/31 10:18:10;;;;;;;3.72;1.45;;;;;;;-144.48;100.00;62369.91;5010322;28;20409;-74
2022/08/31 10:20:45;;;;;;;9.27;1.42;;;;;;;-144.48;100.00;62369.91;5011036;28;20079;-72
2022/08/31 10:23:34;;;;;;;11.35;1.50;;;;;;;-144.48;100.00;62369.91;4997597;28;20385;-72
2022/08/31 10:26:06;;;;;;;6.10;1.27;;;;;;;-144.48;100.00;62369.91;5009245;28;20021;-73
2022/08/31 10:28:52;;;;;;;6.93;1.83;;;;;;;-144.48;100.00;62369.91;5010574;28;20022;-74
2022/08/31 10:31:23;;;;;;;8.10;1.63;;;;;;;-144.48;100.00;62369.91;5010585;28;20479;-73
2022/08/31 10:36:47;;;;;;;6.63;1.27;;;;;;;-144.48;100.00;62369.91;4992404;28;20484;-73
2022/08/31 10:39:32;;;;;;;3.20;1.40;;;;;;;-144.48;100.00;62369.91;5006393;28;20030;-73
2022/08/31 10:42:04;;;;;;;3.63;1.52;;;;;;;-144.48;100.00;62369.91;5010689;28;20022;-70
2022/08/31 10:44:39;;;;;;;6.30;1.48;;;;;;;-144.48;100.00;62369.91;5010457;28;20076;-72
2022/08/31 10:47:04;;;;;;;3.72;1.40;;;;;;;-144.48;100.00;62369.91;5009252;28;20028;-73
2022/08/31 10:49:34;;;;;;;5.82;1.45;;;;;;;-144.48;100.00;62369.91;5008435;28;20109;-71
2022/08/31 10:52:20;;;;;;;5.28;1.38;;;;;;;-144.48;100.00;62369.91;5010159;28;20149;-71
2022/08/31 10:55:06;;;;;;;4.22;1.30;;;;;;;-144.48;100.00;62369.91;5010254;28;20029;-71
2022/08/31 10:57:47;;;;;;;4.78;1.30;;;;;;;-144.48;100.00;62369.91;5009831;28;20084;-72
2022/08/31 11:03:03;;;;;;;6.43;2.05;;;;;;;-144.48;100.00;62369.91;5031467;28;20028;-74
2022/08/31 11:05:36;;;;;;;4.90;1.60;;;;;;;-144.48;100.00;62369.91;5022536;28;20061;-71
2022/08/31 11:08:15;;;;;;;9.50;2.22;;;;;;;-144.48;100.00;62369.91;5009448;28;20436;-71
2022/08/31 11:10:50;;;;;;;8.48;1.55;;;;;;;-144.48;100.00;62369.91;5010148;28;20034;-73
2022/08/31 11:13:24;;;;;;;6.82;1.45;;;;;;;-144.48;100.00;62369.91;5010374;28;20118;-73
2022/08/31 11:16:04;;;;;;;5.10;1.70;;;;;;;-144.48;100.00;62369.91;5010191;28;20030;-73
2022/08/31 11:18:49;;;;;;;7.68;1.73;;;;;;;-144.48;100.00;62369.91;5009384;28;20515;-73
2022/08/31 11:21:41;;;;;;;6.05;1.70;;;;;;;-144.48;100.00;62369.91;5009786;28;20037;-73
2022/08/31 11:24:17;;;;;;;4.38;1.50;;;;;;;-144.48;100.00;62369.91;5009661;28;20034;-70
2022/08/31 11:26:51;;;;;;;4.40;1.90;;;;;;;-144.48;100.00;62369.91;5002186;28;20076;-74
2022/08/31 11:29:24;;;;;;;7.85;1.70;;;;;;;-144.48;100.00;62369.91;5009398;28;20129;-73
2022/08/31 11:31:50;;;;;;;3.85;1.50;;;;;;;-144.48;100.00;62369.91;5009313;28;20407;-71
2022/08/31 11:34:29;;;;;;;7.05;1.70;;;;;;;-144.48;100.00;62369.91;5009292;28;20034;-70
2022/08/31 11:36:59;;;;;;;7.55;1.92;;;;;;;-144.48;100.00;62369.91;5009412;28;20026;-74